sensor_id;sensor_type;location;lat;lon;timestamp;temperature;humidity
31133;DHT22;17779;50.942;4.026;2023-02-01T00:02:03;7.80;99.90
31133;DHT22;17779;50.942;4.026;2023-02-01T00:04:28;7.70;99.90
31133;DHT22;17779;50.942;4.026;2023-02-01T00:06:54;7.80;99.90
31133;DHT22;17779;50.942;4.026;2023-02-01T00:09:20;7.80;99.90
31133;DHT22;17779;50.942;4.026;2023-02-01T00:11:46;7.70;99.90
31133;DHT22;17779;50.942;4.026;2023-02-01T00:14:11;7.60;99.90
31133;DHT22;17779;50.942;4.026;2023-02-01T00:16:37;7.70;99.90
31133;DHT22;17779;50.942;4.026;2023-02-01T00:19:13;7.80;99.90
31133;DHT22;17779;50.942;4.026;2023-02-01T00:21:39;7.80;99.90
31133;DHT22;17779;50.942;4.026;2023-02-01T00:24:05;7.80;99.90
31133;DHT22;17779;50.942;4.026;2023-02-01T00:26:32;7.60;99.90
31133;DHT22;17779;50.942;4.026;2023-02-01T00:28:58;7.60;99.90
31133;DHT22;17779;50.942;4.026;2023-02-01T00:31:24;7.60;99.90
31133;DHT22;17779;50.942;4.026;2023-02-01T00:33:49;7.60;99.90
31133;DHT22;17779;50.942;4.026;2023-02-01T00:36:15;7.60;99.90
31133;DHT22;17779;50.942;4.026;2023-02-01T00:38:41;7.70;99.90
31133;DHT22;17779;50.942;4.026;2023-02-01T00:41:09;7.80;99.90
31133;DHT22;17779;50.942;4.026;2023-02-01T00:43:35;7.80;99.90
31133;DHT22;17779;50.942;4.026;2023-02-01T00:46:01;7.80;99.90
31133;DHT22;17779;50.942;4.026;2023-02-01T00:48:27;7.80;99.90
31133;DHT22;17779;50.942;4.026;2023-02-01T00:50:53;7.80;99.90
31133;DHT22;17779;50.942;4.026;2023-02-01T00:53:18;7.80;99.90
31133;DHT22;17779;50.942;4.026;2023-02-01T00:55:44;7.60;99.90
31133;DHT22;17779;50.942;4.026;2023-02-01T00:58:10;7.50;99.90
31133;DHT22;17779;50.942;4.026;2023-02-01T01:00:36;7.40;99.90
31133;DHT22;17779;50.942;4.026;2023-02-01T01:03:02;7.30;99.90
31133;DHT22;17779;50.942;4.026;2023-02-01T01:05:28;7.20;99.90
31133;DHT22;17779;50.942;4.026;2023-02-01T01:07:54;7.00;99.90
31133;DHT22;17779;50.942;4.026;2023-02-01T01:10:19;7.00;99.90
31133;DHT22;17779;50.942;4.026;2023-02-01T01:12:45;7.00;99.90
31133;DHT22;17779;50.942;4.026;2023-02-01T01:15:11;7.10;99.90
31133;DHT22;17779;50.942;4.026;2023-02-01T01:17:36;7.00;99.90
31133;DHT22;17779;50.942;4.026;2023-02-01T01:20:03;6.90;99.90
31133;DHT22;17779;50.942;4.026;2023-02-01T01:22:29;6.90;99.90
31133;DHT22;17779;50.942;4.026;2023-02-01T01:24:55;6.90;99.90
31133;DHT22;17779;50.942;4.026;2023-02-01T01:27:20;6.80;99.90
31133;DHT22;17779;50.942;4.026;2023-02-01T01:29:49;6.70;99.90
31133;DHT22;17779;50.942;4.026;2023-02-01T01:32:15;6.90;99.90
31133;DHT22;17779;50.942;4.026;2023-02-01T01:34:41;6.70;99.90
31133;DHT22;17779;50.942;4.026;2023-02-01T01:37:07;6.50;99.90
31133;DHT22;17779;50.942;4.026;2023-02-01T01:39:32;6.60;99.90
31133;DHT22;17779;50.942;4.026;2023-02-01T01:41:58;6.60;99.90
31133;DHT22;17779;50.942;4.026;2023-02-01T01:47:08;6.40;99.90
31133;DHT22;17779;50.942;4.026;2023-02-01T01:49:35;6.30;99.90
31133;DHT22;17779;50.942;4.026;2023-02-01T01:52:01;6.20;99.90
31133;DHT22;17779;50.942;4.026;2023-02-01T01:54:35;6.30;99.90
31133;DHT22;17779;50.942;4.026;2023-02-01T01:57:04;6.40;99.90
31133;DHT22;17779;50.942;4.026;2023-02-01T01:59:32;6.30;99.90
31133;DHT22;17779;50.942;4.026;2023-02-01T02:01:58;6.30;99.90
31133;DHT22;17779;50.942;4.026;2023-02-01T02:04:23;6.30;99.90
31133;DHT22;17779;50.942;4.026;2023-02-01T02:07:00;6.40;99.90
31133;DHT22;17779;50.942;4.026;2023-02-01T02:09:27;6.30;99.90
31133;DHT22;17779;50.942;4.026;2023-02-01T02:11:52;6.30;99.90
31133;DHT22;17779;50.942;4.026;2023-02-01T02:14:18;6.30;99.90
31133;DHT22;17779;50.942;4.026;2023-02-01T02:16:47;6.50;99.90
31133;DHT22;17779;50.942;4.026;2023-02-01T02:19:22;6.60;99.90
31133;DHT22;17779;50.942;4.026;2023-02-01T02:24:42;6.70;99.90
31133;DHT22;17779;50.942;4.026;2023-02-01T02:30:09;6.90;99.90
31133;DHT22;17779;50.942;4.026;2023-02-01T02:32:47;6.90;99.90
31133;DHT22;17779;50.942;4.026;2023-02-01T02:35:21;6.80;99.90
31133;DHT22;17779;50.942;4.026;2023-02-01T02:37:53;6.70;99.90
31133;DHT22;17779;50.942;4.026;2023-02-01T02:40:22;6.60;99.90
31133;DHT22;17779;50.942;4.026;2023-02-01T02:43:09;6.50;99.90
31133;DHT22;17779;50.942;4.026;2023-02-01T02:46:17;6.50;99.90
31133;DHT22;17779;50.942;4.026;2023-02-01T02:49:01;6.50;99.90
31133;DHT22;17779;50.942;4.026;2023-02-01T02:51:31;6.50;99.90
31133;DHT22;17779;50.942;4.026;2023-02-01T02:54:23;6.40;99.90
31133;DHT22;17779;50.942;4.026;2023-02-01T02:57:09;6.50;99.90
31133;DHT22;17779;50.942;4.026;2023-02-01T02:59:54;6.50;99.90
31133;DHT22;17779;50.942;4.026;2023-02-01T03:02:39;6.40;99.90
31133;DHT22;17779;50.942;4.026;2023-02-01T03:05:24;6.50;99.90
31133;DHT22;17779;50.942;4.026;2023-02-01T03:10:32;6.50;99.90
31133;DHT22;17779;50.942;4.026;2023-02-01T03:16:02;6.40;99.90
31133;DHT22;17779;50.942;4.026;2023-02-01T03:18:31;6.40;99.90
31133;DHT22;17779;50.942;4.026;2023-02-01T03:20:58;6.40;99.90
31133;DHT22;17779;50.942;4.026;2023-02-01T03:23:26;6.60;99.90
31133;DHT22;17779;50.942;4.026;2023-02-01T03:25:53;6.60;99.90
31133;DHT22;17779;50.942;4.026;2023-02-01T03:28:20;6.50;99.90
31133;DHT22;17779;50.942;4.026;2023-02-01T03:30:48;6.40;99.90
31133;DHT22;17779;50.942;4.026;2023-02-01T03:33:18;6.40;99.90
31133;DHT22;17779;50.942;4.026;2023-02-01T03:38:38;6.40;99.90
31133;DHT22;17779;50.942;4.026;2023-02-01T03:44:12;6.40;99.90
31133;DHT22;17779;50.942;4.026;2023-02-01T03:46:32;6.30;99.90
31133;DHT22;17779;50.942;4.026;2023-02-01T03:49:00;6.40;99.90
31133;DHT22;17779;50.942;4.026;2023-02-01T03:51:26;6.40;99.90
31133;DHT22;17779;50.942;4.026;2023-02-01T03:53:52;6.40;99.90
31133;DHT22;17779;50.942;4.026;2023-02-01T03:56:19;6.30;99.90
31133;DHT22;17779;50.942;4.026;2023-02-01T03:58:46;6.30;99.90
31133;DHT22;17779;50.942;4.026;2023-02-01T04:01:27;6.20;99.90
31133;DHT22;17779;50.942;4.026;2023-02-01T04:03:53;6.20;99.90
31133;DHT22;17779;50.942;4.026;2023-02-01T04:06:19;6.20;99.90
31133;DHT22;17779;50.942;4.026;2023-02-01T04:08:45;6.20;99.90
31133;DHT22;17779;50.942;4.026;2023-02-01T04:11:12;6.20;99.90
31133;DHT22;17779;50.942;4.026;2023-02-01T04:13:38;6.20;99.90
31133;DHT22;17779;50.942;4.026;2023-02-01T04:16:03;6.10;99.90
31133;DHT22;17779;50.942;4.026;2023-02-01T04:18:29;6.10;99.90
31133;DHT22;17779;50.942;4.026;2023-02-01T04:20:55;6.10;99.90
31133;DHT22;17779;50.942;4.026;2023-02-01T04:23:21;6.00;99.90
31133;DHT22;17779;50.942;4.026;2023-02-01T04:25:46;5.90;99.90
31133;DHT22;17779;50.942;4.026;2023-02-01T04:28:12;6.00;99.90
31133;DHT22;17779;50.942;4.026;2023-02-01T04:30:38;5.90;99.90
31133;DHT22;17779;50.942;4.026;2023-02-01T04:33:04;5.90;99.90
31133;DHT22;17779;50.942;4.026;2023-02-01T04:35:32;5.80;99.90
31133;DHT22;17779;50.942;4.026;2023-02-01T04:37:58;5.70;99.90
31133;DHT22;17779;50.942;4.026;2023-02-01T04:40:24;5.70;99.90
31133;DHT22;17779;50.942;4.026;2023-02-01T04:42:49;5.70;99.90
31133;DHT22;17779;50.942;4.026;2023-02-01T04:45:15;5.70;99.90
31133;DHT22;17779;50.942;4.026;2023-02-01T04:47:41;5.80;99.90
31133;DHT22;17779;50.942;4.026;2023-02-01T04:50:07;5.80;99.90
31133;DHT22;17779;50.942;4.026;2023-02-01T04:52:36;5.70;99.90
31133;DHT22;17779;50.942;4.026;2023-02-01T04:55:01;5.70;99.90
31133;DHT22;17779;50.942;4.026;2023-02-01T04:57:28;5.70;99.90
31133;DHT22;17779;50.942;4.026;2023-02-01T04:59:54;5.60;99.90
31133;DHT22;17779;50.942;4.026;2023-02-01T05:02:19;5.60;99.90
31133;DHT22;17779;50.942;4.026;2023-02-01T05:04:45;5.60;99.90
31133;DHT22;17779;50.942;4.026;2023-02-01T05:07:11;5.60;99.90
31133;DHT22;17779;50.942;4.026;2023-02-01T05:09:37;5.60;99.90
31133;DHT22;17779;50.942;4.026;2023-02-01T05:12:02;5.50;99.90
31133;DHT22;17779;50.942;4.026;2023-02-01T05:14:47;5.50;99.90
31133;DHT22;17779;50.942;4.026;2023-02-01T05:17:13;5.60;99.90
31133;DHT22;17779;50.942;4.026;2023-02-01T05:19:38;5.40;99.90
31133;DHT22;17779;50.942;4.026;2023-02-01T05:22:04;5.30;99.90
31133;DHT22;17779;50.942;4.026;2023-02-01T05:24:30;5.30;99.90
31133;DHT22;17779;50.942;4.026;2023-02-01T05:26:56;5.40;99.90
31133;DHT22;17779;50.942;4.026;2023-02-01T05:29:22;5.30;99.90
31133;DHT22;17779;50.942;4.026;2023-02-01T05:31:47;5.30;99.90
31133;DHT22;17779;50.942;4.026;2023-02-01T05:34:14;5.20;99.90
31133;DHT22;17779;50.942;4.026;2023-02-01T05:36:39;5.30;99.90
31133;DHT22;17779;50.942;4.026;2023-02-01T05:39:06;5.40;99.90
31133;DHT22;17779;50.942;4.026;2023-02-01T05:41:31;5.30;99.90
31133;DHT22;17779;50.942;4.026;2023-02-01T05:43:57;5.40;99.90
31133;DHT22;17779;50.942;4.026;2023-02-01T05:46:23;5.30;99.90
31133;DHT22;17779;50.942;4.026;2023-02-01T05:48:48;5.30;99.90
31133;DHT22;17779;50.942;4.026;2023-02-01T05:51:14;5.30;99.90
31133;DHT22;17779;50.942;4.026;2023-02-01T05:53:40;5.20;99.90
31133;DHT22;17779;50.942;4.026;2023-02-01T05:56:06;5.40;99.90
31133;DHT22;17779;50.942;4.026;2023-02-01T05:58:32;5.30;99.90
31133;DHT22;17779;50.942;4.026;2023-02-01T06:01:01;5.30;99.90
31133;DHT22;17779;50.942;4.026;2023-02-01T06:03:27;5.20;99.90
31133;DHT22;17779;50.942;4.026;2023-02-01T06:05:53;5.30;99.90
31133;DHT22;17779;50.942;4.026;2023-02-01T06:08:18;5.30;99.90
31133;DHT22;17779;50.942;4.026;2023-02-01T06:10:44;5.30;99.90
31133;DHT22;17779;50.942;4.026;2023-02-01T06:13:10;5.20;99.90
31133;DHT22;17779;50.942;4.026;2023-02-01T06:15:36;5.20;99.90
31133;DHT22;17779;50.942;4.026;2023-02-01T06:18:04;5.30;99.90
31133;DHT22;17779;50.942;4.026;2023-02-01T06:20:30;5.20;99.90
31133;DHT22;17779;50.942;4.026;2023-02-01T06:22:55;5.20;99.90
31133;DHT22;17779;50.942;4.026;2023-02-01T06:25:21;5.20;99.90
31133;DHT22;17779;50.942;4.026;2023-02-01T06:27:50;5.10;99.90
31133;DHT22;17779;50.942;4.026;2023-02-01T06:30:16;5.20;99.90
31133;DHT22;17779;50.942;4.026;2023-02-01T06:32:42;5.10;99.90
31133;DHT22;17779;50.942;4.026;2023-02-01T06:35:08;5.20;99.90
31133;DHT22;17779;50.942;4.026;2023-02-01T06:37:37;5.20;99.90
31133;DHT22;17779;50.942;4.026;2023-02-01T06:40:03;5.10;99.90
31133;DHT22;17779;50.942;4.026;2023-02-01T06:42:29;5.20;99.90
31133;DHT22;17779;50.942;4.026;2023-02-01T06:44:55;5.20;99.90
31133;DHT22;17779;50.942;4.026;2023-02-01T06:47:24;5.10;99.90
31133;DHT22;17779;50.942;4.026;2023-02-01T06:49:50;5.10;99.90
31133;DHT22;17779;50.942;4.026;2023-02-01T06:52:15;5.00;99.90
31133;DHT22;17779;50.942;4.026;2023-02-01T06:54:41;5.00;99.90
31133;DHT22;17779;50.942;4.026;2023-02-01T06:57:07;5.00;99.90
31133;DHT22;17779;50.942;4.026;2023-02-01T06:59:38;5.10;99.90
31133;DHT22;17779;50.942;4.026;2023-02-01T07:02:04;5.20;99.90
31133;DHT22;17779;50.942;4.026;2023-02-01T07:04:30;5.10;99.90
31133;DHT22;17779;50.942;4.026;2023-02-01T07:06:59;5.10;99.90
31133;DHT22;17779;50.942;4.026;2023-02-01T07:09:24;5.10;99.90
31133;DHT22;17779;50.942;4.026;2023-02-01T07:11:50;5.20;99.90
31133;DHT22;17779;50.942;4.026;2023-02-01T07:14:16;5.20;99.90
31133;DHT22;17779;50.942;4.026;2023-02-01T07:16:42;5.20;99.90
31133;DHT22;17779;50.942;4.026;2023-02-01T07:19:08;5.20;99.90
31133;DHT22;17779;50.942;4.026;2023-02-01T07:21:33;5.20;99.90
31133;DHT22;17779;50.942;4.026;2023-02-01T07:23:59;5.30;99.90
31133;DHT22;17779;50.942;4.026;2023-02-01T07:26:25;5.30;99.90
31133;DHT22;17779;50.942;4.026;2023-02-01T07:28:51;5.40;99.90
31133;DHT22;17779;50.942;4.026;2023-02-01T07:31:18;5.50;99.90
31133;DHT22;17779;50.942;4.026;2023-02-01T07:33:46;5.50;99.90
31133;DHT22;17779;50.942;4.026;2023-02-01T07:36:13;5.50;99.90
31133;DHT22;17779;50.942;4.026;2023-02-01T07:38:39;5.40;99.90
31133;DHT22;17779;50.942;4.026;2023-02-01T07:41:05;5.50;99.90
31133;DHT22;17779;50.942;4.026;2023-02-01T07:43:31;5.50;99.90
31133;DHT22;17779;50.942;4.026;2023-02-01T07:45:58;5.50;99.90
31133;DHT22;17779;50.942;4.026;2023-02-01T07:48:24;5.60;99.90
31133;DHT22;17779;50.942;4.026;2023-02-01T07:50:57;5.70;99.90
31133;DHT22;17779;50.942;4.026;2023-02-01T07:53:23;5.70;99.90
31133;DHT22;17779;50.942;4.026;2023-02-01T07:55:49;5.80;99.90
31133;DHT22;17779;50.942;4.026;2023-02-01T07:58:15;5.90;99.90
31133;DHT22;17779;50.942;4.026;2023-02-01T08:00:41;6.00;99.90
31133;DHT22;17779;50.942;4.026;2023-02-01T08:03:25;6.00;99.90
31133;DHT22;17779;50.942;4.026;2023-02-01T08:05:54;6.10;99.90
31133;DHT22;17779;50.942;4.026;2023-02-01T08:08:20;6.20;99.90
31133;DHT22;17779;50.942;4.026;2023-02-01T08:10:46;6.40;99.90
31133;DHT22;17779;50.942;4.026;2023-02-01T08:13:12;6.40;99.90
31133;DHT22;17779;50.942;4.026;2023-02-01T08:15:38;6.40;99.90
31133;DHT22;17779;50.942;4.026;2023-02-01T08:18:04;6.50;99.90
31133;DHT22;17779;50.942;4.026;2023-02-01T08:20:29;6.60;99.90
31133;DHT22;17779;50.942;4.026;2023-02-01T08:22:55;6.50;99.90
31133;DHT22;17779;50.942;4.026;2023-02-01T08:25:22;6.50;99.90
31133;DHT22;17779;50.942;4.026;2023-02-01T08:27:48;6.60;99.90
31133;DHT22;17779;50.942;4.026;2023-02-01T08:30:14;6.50;99.90
31133;DHT22;17779;50.942;4.026;2023-02-01T08:32:40;6.70;99.90
31133;DHT22;17779;50.942;4.026;2023-02-01T08:35:06;6.80;99.90
31133;DHT22;17779;50.942;4.026;2023-02-01T08:37:32;6.90;99.90
31133;DHT22;17779;50.942;4.026;2023-02-01T08:39:57;7.00;99.90
31133;DHT22;17779;50.942;4.026;2023-02-01T08:42:23;7.20;99.90
31133;DHT22;17779;50.942;4.026;2023-02-01T08:45:08;7.50;99.90
31133;DHT22;17779;50.942;4.026;2023-02-01T08:47:34;7.60;99.90
31133;DHT22;17779;50.942;4.026;2023-02-01T08:50:00;7.50;99.90
31133;DHT22;17779;50.942;4.026;2023-02-01T08:52:26;7.60;99.90
31133;DHT22;17779;50.942;4.026;2023-02-01T08:54:51;7.80;99.90
31133;DHT22;17779;50.942;4.026;2023-02-01T08:57:17;8.40;99.90
31133;DHT22;17779;50.942;4.026;2023-02-01T08:59:43;8.70;99.90
31133;DHT22;17779;50.942;4.026;2023-02-01T09:02:13;8.50;99.90
31133;DHT22;17779;50.942;4.026;2023-02-01T09:04:40;8.80;99.90
31133;DHT22;17779;50.942;4.026;2023-02-01T09:07:06;9.10;99.90
31133;DHT22;17779;50.942;4.026;2023-02-01T09:09:32;9.60;99.90
31133;DHT22;17779;50.942;4.026;2023-02-01T09:11:57;10.00;99.90
31133;DHT22;17779;50.942;4.026;2023-02-01T09:14:23;10.70;99.90
31133;DHT22;17779;50.942;4.026;2023-02-01T09:16:49;10.70;99.90
31133;DHT22;17779;50.942;4.026;2023-02-01T09:19:14;10.90;99.90
31133;DHT22;17779;50.942;4.026;2023-02-01T09:21:40;10.40;99.90
31133;DHT22;17779;50.942;4.026;2023-02-01T09:24:06;10.60;99.90
31133;DHT22;17779;50.942;4.026;2023-02-01T09:26:32;10.90;99.90
31133;DHT22;17779;50.942;4.026;2023-02-01T09:28:59;11.10;99.90
31133;DHT22;17779;50.942;4.026;2023-02-01T09:31:24;12.10;99.90
31133;DHT22;17779;50.942;4.026;2023-02-01T09:33:50;12.80;99.90
31133;DHT22;17779;50.942;4.026;2023-02-01T09:36:16;13.10;99.90
31133;DHT22;17779;50.942;4.026;2023-02-01T09:38:45;13.60;99.90
31133;DHT22;17779;50.942;4.026;2023-02-01T09:43:48;14.30;99.90
31133;DHT22;17779;50.942;4.026;2023-02-01T09:46:29;15.10;99.90
31133;DHT22;17779;50.942;4.026;2023-02-01T09:48:56;15.50;99.90
31133;DHT22;17779;50.942;4.026;2023-02-01T09:51:26;16.50;99.90
31133;DHT22;17779;50.942;4.026;2023-02-01T09:53:58;16.80;99.90
31133;DHT22;17779;50.942;4.026;2023-02-01T09:56:26;16.70;99.90
31133;DHT22;17779;50.942;4.026;2023-02-01T09:58:56;15.40;99.90
31133;DHT22;17779;50.942;4.026;2023-02-01T10:01:25;16.00;99.90
31133;DHT22;17779;50.942;4.026;2023-02-01T10:03:53;16.30;99.90
31133;DHT22;17779;50.942;4.026;2023-02-01T10:11:44;15.60;99.90
31133;DHT22;17779;50.942;4.026;2023-02-01T10:14:23;16.70;99.90
31133;DHT22;17779;50.942;4.026;2023-02-01T10:17:14;16.40;99.90
31133;DHT22;17779;50.942;4.026;2023-02-01T10:22:23;15.40;99.90
31133;DHT22;17779;50.942;4.026;2023-02-01T10:24:53;14.40;99.90
31133;DHT22;17779;50.942;4.026;2023-02-01T10:27:27;14.40;99.90
31133;DHT22;17779;50.942;4.026;2023-02-01T10:29:57;15.60;99.90
31133;DHT22;17779;50.942;4.026;2023-02-01T10:32:29;15.30;99.90
31133;DHT22;17779;50.942;4.026;2023-02-01T10:34:59;14.80;99.90
31133;DHT22;17779;50.942;4.026;2023-02-01T10:37:30;13.90;99.90
31133;DHT22;17779;50.942;4.026;2023-02-01T10:39:58;13.90;99.90
31133;DHT22;17779;50.942;4.026;2023-02-01T10:42:26;14.90;99.90
31133;DHT22;17779;50.942;4.026;2023-02-01T10:44:52;16.10;99.90
31133;DHT22;17779;50.942;4.026;2023-02-01T10:47:18;16.20;99.90
31133;DHT22;17779;50.942;4.026;2023-02-01T10:52:34;16.70;99.90
31133;DHT22;17779;50.942;4.026;2023-02-01T10:58:01;16.30;99.90
31133;DHT22;17779;50.942;4.026;2023-02-01T11:00:41;16.50;99.90
31133;DHT22;17779;50.942;4.026;2023-02-01T11:06:13;18.80;99.90
31133;DHT22;17779;50.942;4.026;2023-02-01T11:08:46;18.80;99.90
31133;DHT22;17779;50.942;4.026;2023-02-01T11:11:12;17.40;99.90
31133;DHT22;17779;50.942;4.026;2023-02-01T11:13:39;16.90;99.90
31133;DHT22;17779;50.942;4.026;2023-02-01T11:16:05;16.20;99.90
31133;DHT22;17779;50.942;4.026;2023-02-01T11:18:36;14.80;99.90
31133;DHT22;17779;50.942;4.026;2023-02-01T11:21:02;14.00;99.90
31133;DHT22;17779;50.942;4.026;2023-02-01T11:23:28;13.70;99.90
31133;DHT22;17779;50.942;4.026;2023-02-01T11:25:58;13.70;99.90
31133;DHT22;17779;50.942;4.026;2023-02-01T11:28:33;13.50;99.90
31133;DHT22;17779;50.942;4.026;2023-02-01T11:31:04;13.50;99.90
31133;DHT22;17779;50.942;4.026;2023-02-01T11:33:31;12.50;99.90
31133;DHT22;17779;50.942;4.026;2023-02-01T11:36:14;12.40;99.90
31133;DHT22;17779;50.942;4.026;2023-02-01T11:38:45;12.40;99.90
31133;DHT22;17779;50.942;4.026;2023-02-01T11:43:37;12.30;99.90
31133;DHT22;17779;50.942;4.026;2023-02-01T11:46:03;12.50;99.90
31133;DHT22;17779;50.942;4.026;2023-02-01T11:48:30;12.40;99.90
31133;DHT22;17779;50.942;4.026;2023-02-01T11:51:07;12.90;99.90
31133;DHT22;17779;50.942;4.026;2023-02-01T11:53:50;13.30;99.90
31133;DHT22;17779;50.942;4.026;2023-02-01T12:06:42;15.00;99.90
31133;DHT22;17779;50.942;4.026;2023-02-01T12:20:01;17.20;99.90
31133;DHT22;17779;50.942;4.026;2023-02-01T12:22:38;16.50;99.90
31133;DHT22;17779;50.942;4.026;2023-02-01T12:25:21;16.00;99.90
31133;DHT22;17779;50.942;4.026;2023-02-01T12:33:09;15.90;99.90
31133;DHT22;17779;50.942;4.026;2023-02-01T12:38:25;17.30;99.90
31133;DHT22;17779;50.942;4.026;2023-02-01T12:43:25;16.10;99.90
31133;DHT22;17779;50.942;4.026;2023-02-01T12:45:53;16.50;99.90
31133;DHT22;17779;50.942;4.026;2023-02-01T12:50:53;17.20;99.90
31133;DHT22;17779;50.942;4.026;2023-02-01T12:53:23;17.60;99.90
31133;DHT22;17779;50.942;4.026;2023-02-01T12:55:54;18.80;98.90
31133;DHT22;17779;50.942;4.026;2023-02-01T13:00:50;18.50;97.70
31133;DHT22;17779;50.942;4.026;2023-02-01T13:03:26;17.80;98.10
31133;DHT22;17779;50.942;4.026;2023-02-01T13:08:28;16.70;99.90
31133;DHT22;17779;50.942;4.026;2023-02-01T13:13:45;16.10;99.90
31133;DHT22;17779;50.942;4.026;2023-02-01T13:16:16;16.30;99.90
31133;DHT22;17779;50.942;4.026;2023-02-01T13:18:43;16.10;99.90
31133;DHT22;17779;50.942;4.026;2023-02-01T13:21:15;16.20;99.90
31133;DHT22;17779;50.942;4.026;2023-02-01T13:23:43;16.10;99.90
31133;DHT22;17779;50.942;4.026;2023-02-01T13:26:10;15.80;99.90
31133;DHT22;17779;50.942;4.026;2023-02-01T13:31:27;15.70;99.90
31133;DHT22;17779;50.942;4.026;2023-02-01T13:36:42;17.40;99.90
31133;DHT22;17779;50.942;4.026;2023-02-01T13:42:02;16.20;99.90
31133;DHT22;17779;50.942;4.026;2023-02-01T13:44:38;16.20;99.90
31133;DHT22;17779;50.942;4.026;2023-02-01T13:47:10;15.70;99.90
31133;DHT22;17779;50.942;4.026;2023-02-01T13:49:38;16.10;99.90
31133;DHT22;17779;50.942;4.026;2023-02-01T13:52:05;15.30;99.90
31133;DHT22;17779;50.942;4.026;2023-02-01T13:54:38;14.40;99.90
31133;DHT22;17779;50.942;4.026;2023-02-01T13:57:05;13.70;99.90
31133;DHT22;17779;50.942;4.026;2023-02-01T14:04:50;13.70;99.90
31133;DHT22;17779;50.942;4.026;2023-02-01T14:07:20;15.10;99.90
31133;DHT22;17779;50.942;4.026;2023-02-01T14:09:46;14.80;99.90
31133;DHT22;17779;50.942;4.026;2023-02-01T14:15:18;12.90;99.90
31133;DHT22;17779;50.942;4.026;2023-02-01T14:17:44;12.80;99.90
31133;DHT22;17779;50.942;4.026;2023-02-01T14:23:01;11.90;99.90
31133;DHT22;17779;50.942;4.026;2023-02-01T14:25:32;11.60;99.90
31133;DHT22;17779;50.942;4.026;2023-02-01T14:27:57;11.80;99.90
31133;DHT22;17779;50.942;4.026;2023-02-01T14:30:23;11.90;99.90
31133;DHT22;17779;50.942;4.026;2023-02-01T14:32:49;11.70;99.90
31133;DHT22;17779;50.942;4.026;2023-02-01T14:35:19;11.70;99.90
31133;DHT22;17779;50.942;4.026;2023-02-01T14:37:45;11.50;99.90
31133;DHT22;17779;50.942;4.026;2023-02-01T14:40:19;11.40;99.90
31133;DHT22;17779;50.942;4.026;2023-02-01T14:42:49;11.40;99.90
31133;DHT22;17779;50.942;4.026;2023-02-01T14:47:49;11.30;99.90
31133;DHT22;17779;50.942;4.026;2023-02-01T14:50:23;11.20;99.90
31133;DHT22;17779;50.942;4.026;2023-02-01T14:53:03;11.30;99.90
31133;DHT22;17779;50.942;4.026;2023-02-01T14:58:15;11.00;99.90
31133;DHT22;17779;50.942;4.026;2023-02-01T15:00:54;11.00;99.90
31133;DHT22;17779;50.942;4.026;2023-02-01T15:03:34;11.00;99.90
31133;DHT22;17779;50.942;4.026;2023-02-01T15:06:02;10.90;99.90
31133;DHT22;17779;50.942;4.026;2023-02-01T15:08:33;10.80;99.90
31133;DHT22;17779;50.942;4.026;2023-02-01T15:11:00;10.80;99.90
31133;DHT22;17779;50.942;4.026;2023-02-01T15:13:27;10.70;99.90
31133;DHT22;17779;50.942;4.026;2023-02-01T15:16:12;10.70;99.90
31133;DHT22;17779;50.942;4.026;2023-02-01T15:18:38;10.70;99.90
31133;DHT22;17779;50.942;4.026;2023-02-01T15:21:05;10.70;99.90
31133;DHT22;17779;50.942;4.026;2023-02-01T15:23:31;10.60;99.90
31133;DHT22;17779;50.942;4.026;2023-02-01T15:25:57;10.60;99.90
31133;DHT22;17779;50.942;4.026;2023-02-01T15:28:24;10.70;99.90
31133;DHT22;17779;50.942;4.026;2023-02-01T15:30:52;10.80;99.90
31133;DHT22;17779;50.942;4.026;2023-02-01T15:33:18;10.80;99.90
31133;DHT22;17779;50.942;4.026;2023-02-01T15:35:45;10.60;99.90
31133;DHT22;17779;50.942;4.026;2023-02-01T15:41:00;10.50;99.90
31133;DHT22;17779;50.942;4.026;2023-02-01T15:43:27;10.50;99.90
31133;DHT22;17779;50.942;4.026;2023-02-01T15:45:58;10.40;99.90
31133;DHT22;17779;50.942;4.026;2023-02-01T15:48:25;10.50;99.90
31133;DHT22;17779;50.942;4.026;2023-02-01T15:50:55;10.50;99.90
31133;DHT22;17779;50.942;4.026;2023-02-01T15:53:22;10.40;99.90
31133;DHT22;17779;50.942;4.026;2023-02-01T15:55:51;10.30;99.90
31133;DHT22;17779;50.942;4.026;2023-02-01T15:58:18;10.40;99.90
31133;DHT22;17779;50.942;4.026;2023-02-01T16:00:46;10.40;99.90
31133;DHT22;17779;50.942;4.026;2023-02-01T16:03:27;10.30;99.90
31133;DHT22;17779;50.942;4.026;2023-02-01T16:05:55;10.40;99.90
31133;DHT22;17779;50.942;4.026;2023-02-01T16:08:25;10.40;99.90
31133;DHT22;17779;50.942;4.026;2023-02-01T16:10:52;10.20;99.90
31133;DHT22;17779;50.942;4.026;2023-02-01T16:13:18;10.20;99.90
31133;DHT22;17779;50.942;4.026;2023-02-01T16:15:45;10.10;99.90
31133;DHT22;17779;50.942;4.026;2023-02-01T16:18:11;10.20;99.90
31133;DHT22;17779;50.942;4.026;2023-02-01T16:20:38;10.00;99.90
31133;DHT22;17779;50.942;4.026;2023-02-01T16:23:05;10.10;99.90
31133;DHT22;17779;50.942;4.026;2023-02-01T16:25:31;10.10;99.90
31133;DHT22;17779;50.942;4.026;2023-02-01T16:27:56;10.00;99.90
31133;DHT22;17779;50.942;4.026;2023-02-01T16:30:22;10.00;99.90
31133;DHT22;17779;50.942;4.026;2023-02-01T16:32:52;10.10;99.90
31133;DHT22;17779;50.942;4.026;2023-02-01T16:35:30;10.00;99.90
31133;DHT22;17779;50.942;4.026;2023-02-01T16:38:04;10.00;99.90
31133;DHT22;17779;50.942;4.026;2023-02-01T16:40:37;10.10;99.90
31133;DHT22;17779;50.942;4.026;2023-02-01T16:43:16;10.10;99.90
31133;DHT22;17779;50.942;4.026;2023-02-01T16:45:45;10.10;99.90
31133;DHT22;17779;50.942;4.026;2023-02-01T16:48:24;10.00;99.90
31133;DHT22;17779;50.942;4.026;2023-02-01T16:50:54;10.00;99.90
31133;DHT22;17779;50.942;4.026;2023-02-01T16:53:21;9.80;99.90
31133;DHT22;17779;50.942;4.026;2023-02-01T16:55:47;9.70;99.90
31133;DHT22;17779;50.942;4.026;2023-02-01T16:58:15;9.70;99.90
31133;DHT22;17779;50.942;4.026;2023-02-01T17:00:41;9.70;99.90
31133;DHT22;17779;50.942;4.026;2023-02-01T17:03:07;9.80;99.90
31133;DHT22;17779;50.942;4.026;2023-02-01T17:05:32;9.70;99.90
31133;DHT22;17779;50.942;4.026;2023-02-01T17:08:00;9.60;99.90
31133;DHT22;17779;50.942;4.026;2023-02-01T17:10:29;9.60;99.90
31133;DHT22;17779;50.942;4.026;2023-02-01T17:12:55;9.70;99.90
31133;DHT22;17779;50.942;4.026;2023-02-01T17:15:23;9.70;99.90
31133;DHT22;17779;50.942;4.026;2023-02-01T17:17:49;9.60;99.90
31133;DHT22;17779;50.942;4.026;2023-02-01T17:20:20;9.50;99.90
31133;DHT22;17779;50.942;4.026;2023-02-01T17:22:46;9.50;99.90
31133;DHT22;17779;50.942;4.026;2023-02-01T17:25:19;9.50;99.90
31133;DHT22;17779;50.942;4.026;2023-02-01T17:27:46;9.50;99.90
31133;DHT22;17779;50.942;4.026;2023-02-01T17:30:12;9.50;99.90
31133;DHT22;17779;50.942;4.026;2023-02-01T17:32:38;9.60;99.90
31133;DHT22;17779;50.942;4.026;2023-02-01T17:35:05;9.70;99.90
31133;DHT22;17779;50.942;4.026;2023-02-01T17:37:32;9.70;99.90
31133;DHT22;17779;50.942;4.026;2023-02-01T17:39:58;9.50;99.90